Monday, July 28, 2014
06:22 UTC
  |  Log In   |  Register Free
Airport Search:

Okmulgee Regional Airport
(KOKM)

Okmulgee Regional Airport Diagram
No Airport Diagram Available

FAA data valid effective July 24, 2014 until September 18, 2014 (unless otherwise noted).

 
 
 
 
 
 
 
 
 
 
 
 
 
 

Current Aviation Weather for Okmulgee Regional Airport (KOKM)

The most recent METAR observation for KOKM was updated at: 0535 UTC
METAR Summary (Translated METAR)
KOKM
280535Z AUTO 01008KT 10SM BKN110 24/19 A3009 RMK AO2 T02370188
KRVS
(22.4 nm NW from KOKM)
280453Z 00000KT 10SM BKN120 24/21 A3010 RMK AO2 SLP194 T02440206
TAF Summary (Translated TAF)
KRVS
(22.4 nm NW from KOKM)
280520Z 2806/2906 00000KT P6SM SCT120 FM281500 03009KT P6SM FEW250 FM290200 03002KT P6SM SKC
  Airport Weather Conditions for KOKM

 Current Weather at OKM
73° F
Mostly Cloudy
North winds at 9.2 mph
OKM NOAA Radar

Pressure: 30.09 in
Humidity: 78%
Wind: North at 9.2 MPH (8 KT)
Dew Point: 66.0°F
Visibility: 10.00 mi


Airport Weather Forecast for KOKM

Translated METAR and TAF for KOKM
Translated METAR for KOKM (0615 UTC 28 July 2014)
found at http://aviationweather.gov/adds/metars/
 
METAR text: KOKM 280555Z AUTO 02008KT 10SM BKN110 23/19 A3009 RMK AO2 T02300189 10301 20216 403550216
Conditions at: KOKM (OKMULGEE , OK, US) observed 0555 UTC 28 July 2014
Temperature: 23.0°C (73°F)
Dewpoint: 18.9°C (66°F) [RH = 78%]
Pressure (altimeter): 30.09 inches Hg (1019.0 mb)
Winds: from the NNE (20 degrees) at 9 MPH (8 knots; 4.2 m/s)
Visibility: 10 or more miles (16+ km)
Ceiling: 11000 feet AGL
Clouds: broken clouds at 11000 feet AGL
Weather: automated observation with no human augmentation;
there may or may not be significant weather present at this time
Translated TAF for KOKM

There is no translated TAF available for this airport

Find All Airport Services Find A Hotel Find A Rental Car Find A Golf Course Find A Restaurant $100 Hamburger



FBO's on the Field
FBO Company Facility Photos Services Transportation Aviation Fuel Prices: Prices include tax
Catering Weather Repair Courtesy Rental Type 100LL JetA JetA+ MOGAS 8087
 
Okmulgee Regional Airport

This FBO has not yet been rated
FS:Phillips66
Last Updated: Jul-07
Login to update fuel prices
SS:
Contact Okmulgee Regional AirportMore FBO Information
 
Add another FBO Facility Photos Catering Weather Repair Courtesy Rental Type 100LL JetA JetA+ MOGAS 8087
Services Transportation Aviation Fuel Prices: Prices include tax


GlobalAir.com Airport Resource Center model-print
model-print
model-print
model-print